Terminal Aerodrome Forecast
Issued by NWS St Louis, MO

Home | Current Version | Previous Version | Graphics & Text | Print | Product List | Glossary Off
Versions: 1 2 3 4 5 6 7 8 9 10 11 12 13 14 15 16 17 18 19 20 21 22 23 24 25 26 27 28

317
FTUS43 KLSX 281146
TAFSTL
TAF
KSTL 281146Z 2812/0118 17010G16KT P6SM OVC015
     FM281700 19014G23KT P6SM BKN035
     FM282200 20015G24KT P6SM VCTS BKN050CB
      TEMPO 0100/0102 3SM TSRA BKN030CB
     FM010800 24013G19KT 4SM -TSRA BR BKN035CB
     FM011100 28016G24KT P6SM BKN015=

USA.gov is the U.S. government's official web portal to all federal, state and local government web resources and services.